createdAt,value
2023-03-25T00:00:15.697Z,99994.22
2023-03-25T00:02:48.524Z,99986.50
2023-03-25T00:05:17.078Z,99988.59
2023-03-25T00:07:45.019Z,99989.25
2023-03-25T00:10:13.792Z,99984.63
2023-03-25T00:12:41.358Z,99982.81
2023-03-25T00:15:09.540Z,99973.97
2023-03-25T00:17:37.077Z,99969.94
2023-03-25T00:20:11.334Z,99971.97
2023-03-25T00:22:41.765Z,99970.38
2023-03-25T00:25:17.992Z,99968.81
2023-03-25T00:27:46.870Z,99955.81
2023-03-25T00:30:18.673Z,99964.94
2023-03-25T00:32:53.231Z,99966.13
2023-03-25T00:35:20.507Z,99969.00
2023-03-25T00:38:00.331Z,99971.63
2023-03-25T00:40:28.631Z,99980.06
2023-03-25T00:42:55.787Z,99976.97
2023-03-25T00:45:22.978Z,99984.44
2023-03-25T00:47:51.210Z,99983.94
2023-03-25T00:50:18.072Z,99985.81
2023-03-25T00:52:45.367Z,99999.97
2023-03-25T00:55:12.442Z,99994.81
2023-03-25T00:57:39.325Z,99994.19
2023-03-25T01:00:09.737Z,99992.31
2023-03-25T01:02:36.639Z,99999.59
2023-03-25T01:05:04.586Z,99995.88
2023-03-25T01:07:32.338Z,99990.28
2023-03-25T01:09:59.999Z,99999.78
2023-03-25T01:12:27.465Z,99999.72
2023-03-25T01:14:54.619Z,99987.34
2023-03-25T01:17:21.430Z,99985.81
2023-03-25T01:19:48.217Z,99978.81
2023-03-25T01:22:15.103Z,99978.81
2023-03-25T01:24:42.443Z,99974.56
2023-03-25T01:27:09.246Z,99973.56
2023-03-25T01:29:36.210Z,99966.44
2023-03-25T01:32:03.125Z,99953.88
2023-03-25T01:34:32.748Z,99967.31
2023-03-25T01:37:00.162Z,99948.63
2023-03-25T01:39:26.973Z,99946.81
2023-03-25T01:41:55.457Z,99940.28
2023-03-25T01:44:22.655Z,99941.97
2023-03-25T01:46:53.934Z,99948.16
2023-03-25T01:49:24.848Z,99943.50
2023-03-25T01:51:55.409Z,99947.28
2023-03-25T01:54:22.462Z,99933.97
2023-03-25T01:56:50.163Z,99938.81
2023-03-25T01:59:19.424Z,99933.97
2023-03-25T02:01:49.369Z,99934.56
2023-03-25T02:04:35.082Z,99925.72
2023-03-25T02:07:02.320Z,99927.09
2023-03-25T02:09:29.228Z,99923.63
2023-03-25T02:11:56.088Z,99919.50
2023-03-25T02:14:25.970Z,99910.44
2023-03-25T02:17:05.494Z,99905.69
2023-03-25T02:19:38.360Z,99913.66
2023-03-25T02:22:38.102Z,99913.34
2023-03-25T02:25:35.657Z,99913.00
2023-03-25T02:28:26.160Z,99911.56
2023-03-25T02:31:34.618Z,99911.00
2023-03-25T02:34:11.387Z,99898.25
2023-03-25T02:37:03.523Z,99897.47
2023-03-25T02:39:47.440Z,99895.75
2023-03-25T02:42:38.463Z,99891.94
2023-03-25T02:45:09.429Z,99889.88
2023-03-25T02:47:40.078Z,99891.13
2023-03-25T02:50:11.145Z,99889.50
2023-03-25T02:52:45.097Z,99890.22
2023-03-25T02:55:15.227Z,99883.31
2023-03-25T02:57:46.202Z,99893.91
2023-03-25T03:00:15.967Z,99866.81
2023-03-25T03:02:53.655Z,99875.53
2023-03-25T03:05:30.105Z,99879.78
2023-03-25T03:08:19.742Z,99883.25
2023-03-25T03:11:05.414Z,99882.22
2023-03-25T03:13:53.427Z,99873.75
2023-03-25T03:16:58.684Z,99882.97
2023-03-25T03:19:40.597Z,99890.78
2023-03-25T03:22:35.197Z,99895.72
2023-03-25T03:25:32.905Z,99894.75
2023-03-25T03:28:07.172Z,99891.41
2023-03-25T03:30:50.160Z,99897.63
2023-03-25T03:33:22.012Z,99891.53
2023-03-25T03:35:57.571Z,99900.00
2023-03-25T03:38:32.933Z,99905.97
2023-03-25T03:41:10.240Z,99903.25
2023-03-25T03:43:51.425Z,99895.94
2023-03-25T03:46:34.850Z,99888.63
2023-03-25T03:49:06.087Z,99895.84
2023-03-25T03:51:39.049Z,99892.19
2023-03-25T03:54:06.757Z,99893.31
2023-03-25T03:56:46.736Z,99884.53
2023-03-25T03:59:21.277Z,99880.44
2023-03-25T04:01:54.364Z,99870.13
2023-03-25T04:04:24.026Z,99873.66
2023-03-25T04:07:14.880Z,99880.66
2023-03-25T04:09:55.267Z,99876.84
2023-03-25T04:12:27.527Z,99880.50
2023-03-25T04:15:01.079Z,99886.56
2023-03-25T04:17:30.373Z,99885.44
2023-03-25T04:19:57.395Z,99891.53
2023-03-25T04:22:24.884Z,99889.06
2023-03-25T04:24:52.206Z,99891.28
2023-03-25T04:27:20.122Z,99887.66
2023-03-25T04:29:47.975Z,99887.00
2023-03-25T04:32:14.975Z,99884.72
2023-03-25T04:34:41.984Z,99883.25
2023-03-25T04:37:08.826Z,99892.09
2023-03-25T04:39:35.642Z,99896.91
2023-03-25T04:42:03.784Z,99893.22
2023-03-25T04:44:33.947Z,99886.53
2023-03-25T04:47:02.472Z,99886.31
2023-03-25T04:49:29.298Z,99882.34
2023-03-25T04:51:57.223Z,99880.25
2023-03-25T04:54:24.120Z,99886.44
2023-03-25T04:56:52.096Z,99887.44
2023-03-25T04:59:20.317Z,99890.25
2023-03-25T05:01:47.796Z,99884.50
2023-03-25T05:04:17.844Z,99886.72
2023-03-25T05:06:50.723Z,99887.50
2023-03-25T05:09:22.336Z,99889.38
2023-03-25T05:11:50.401Z,99883.59
2023-03-25T05:14:19.022Z,99889.91
2023-03-25T05:16:46.730Z,99895.78
2023-03-25T05:19:14.960Z,99883.59
2023-03-25T05:21:42.524Z,99883.94
2023-03-25T05:24:10.917Z,99883.72
2023-03-25T05:26:39.944Z,99887.38
2023-03-25T05:29:09.411Z,99881.34
2023-03-25T05:31:36.554Z,99887.78
2023-03-25T05:34:06.894Z,99895.03
2023-03-25T05:36:33.796Z,99891.06
2023-03-25T05:39:00.867Z,99896.63
2023-03-25T05:41:33.075Z,99897.84
2023-03-25T05:44:01.033Z,99905.06
2023-03-25T05:46:31.110Z,99905.50
2023-03-25T05:48:58.201Z,99908.34
2023-03-25T05:51:26.120Z,99911.31
2023-03-25T05:53:53.467Z,99915.28
2023-03-25T05:56:21.807Z,99911.53
2023-03-25T05:58:51.342Z,99916.22
2023-03-25T06:01:31.986Z,99909.75
2023-03-25T06:04:02.097Z,99916.09
2023-03-25T06:06:29.604Z,99911.91
2023-03-25T06:08:56.472Z,99921.94
2023-03-25T06:11:23.244Z,99917.28
2023-03-25T06:13:50.222Z,99919.66
2023-03-25T06:16:19.858Z,99923.41
2023-03-25T06:18:50.972Z,99919.03
2023-03-25T06:21:19.178Z,99926.81
2023-03-25T06:23:48.353Z,99925.16
2023-03-25T06:26:18.609Z,99929.84
2023-03-25T06:28:46.317Z,99927.75
2023-03-25T06:31:18.799Z,99922.22
2023-03-25T06:33:46.021Z,99922.00
2023-03-25T06:36:15.658Z,99923.16
2023-03-25T06:38:42.542Z,99927.16
2023-03-25T06:41:14.091Z,99920.72
2023-03-25T06:43:43.266Z,99913.78
2023-03-25T06:46:28.798Z,99918.47
2023-03-25T06:49:10.191Z,99921.19
2023-03-25T06:51:36.944Z,99930.72
2023-03-25T06:54:03.736Z,99923.88
2023-03-25T06:56:30.627Z,99930.78
2023-03-25T06:58:57.460Z,99921.13
2023-03-25T07:01:24.374Z,99923.81
2023-03-25T07:03:51.194Z,99918.31
2023-03-25T07:06:20.681Z,99918.19
2023-03-25T07:08:48.038Z,99924.72
2023-03-25T07:11:15.906Z,99933.50
2023-03-25T07:13:42.678Z,99934.63
2023-03-25T07:16:10.160Z,99916.97
2023-03-25T07:18:41.441Z,99928.31
2023-03-25T07:21:08.376Z,99927.31
2023-03-25T07:23:35.150Z,99934.66
2023-03-25T07:26:02.006Z,99938.28
2023-03-25T07:28:28.833Z,99931.44
2023-03-25T07:30:55.637Z,99934.09
2023-03-25T07:33:22.427Z,99930.94
2023-03-25T07:35:49.405Z,99938.06
2023-03-25T07:38:16.362Z,99946.50
2023-03-25T07:40:43.194Z,99934.78
2023-03-25T07:43:16.933Z,99947.47
2023-03-25T07:45:54.213Z,99931.50
2023-03-25T07:48:22.978Z,99948.44
2023-03-25T07:50:51.753Z,99944.09
2023-03-25T07:53:18.575Z,99936.84
2023-03-25T07:55:51.332Z,99940.84
2023-03-25T07:58:19.441Z,99940.69
2023-03-25T08:00:46.562Z,99936.66
2023-03-25T08:03:14.363Z,99943.88
2023-03-25T08:05:47.267Z,99940.41
2023-03-25T08:08:14.669Z,99945.88
2023-03-25T08:10:43.786Z,99940.44
2023-03-25T08:13:11.086Z,99943.13
2023-03-25T08:15:38.295Z,99932.72
2023-03-25T08:18:06.737Z,99941.16
2023-03-25T08:20:34.729Z,99944.47
2023-03-25T08:23:03.124Z,99940.19
2023-03-25T08:25:32.881Z,99937.00
2023-03-25T08:27:59.640Z,99933.66
2023-03-25T08:30:26.497Z,99938.19
2023-03-25T08:32:56.196Z,99939.88
2023-03-25T08:35:24.303Z,99944.00
2023-03-25T08:37:51.713Z,99936.34
2023-03-25T08:40:18.850Z,99944.31
2023-03-25T08:42:46.570Z,99929.75
2023-03-25T08:45:15.523Z,99935.75
2023-03-25T08:47:43.619Z,99931.44
2023-03-25T08:50:10.839Z,99932.63
2023-03-25T08:52:37.766Z,99933.91
2023-03-25T08:55:09.675Z,99940.44
2023-03-25T08:57:38.106Z,99949.38
2023-03-25T09:00:13.252Z,99942.19
2023-03-25T09:02:41.294Z,99937.22
2023-03-25T09:05:09.667Z,99938.03
2023-03-25T09:07:37.191Z,99941.28
2023-03-25T09:10:05.162Z,99940.78
2023-03-25T09:12:32.083Z,99945.38
2023-03-25T09:14:58.855Z,99939.59
2023-03-25T09:17:25.823Z,99947.13
2023-03-25T09:19:54.241Z,99948.56
2023-03-25T09:22:21.617Z,99947.28
2023-03-25T09:24:48.408Z,99949.69
2023-03-25T09:27:15.188Z,99954.22
2023-03-25T09:29:42.249Z,99950.22
2023-03-25T09:32:09.561Z,99953.03
2023-03-25T09:34:38.361Z,99936.56
2023-03-25T09:37:05.253Z,99947.84
2023-03-25T09:39:32.097Z,99941.94
2023-03-25T09:42:04.905Z,99935.88
2023-03-25T09:44:39.638Z,99937.44
2023-03-25T09:47:09.653Z,99946.56
2023-03-25T09:49:46.909Z,99933.25
2023-03-25T09:52:17.772Z,99949.06
2023-03-25T09:54:50.829Z,99940.97
2023-03-25T09:57:23.518Z,99944.31
2023-03-25T09:59:51.951Z,99944.69
2023-03-25T10:02:21.865Z,99945.22
2023-03-25T10:05:08.898Z,99948.16
2023-03-25T10:07:54.614Z,99951.06
2023-03-25T10:10:34.743Z,99945.50
2023-03-25T10:13:10.707Z,99937.94
2023-03-25T10:15:44.364Z,99934.00
2023-03-25T10:18:36.467Z,99942.72
2023-03-25T10:21:12.149Z,99940.69
2023-03-25T10:23:46.217Z,99938.63
2023-03-25T10:26:17.529Z,99951.13
2023-03-25T10:28:53.695Z,99944.91
2023-03-25T10:31:23.010Z,99936.44
2023-03-25T10:33:54.429Z,99944.84
2023-03-25T10:36:28.568Z,99937.91
2023-03-25T10:38:55.864Z,99928.81
2023-03-25T10:41:32.326Z,99920.25
2023-03-25T10:43:59.149Z,99918.50
2023-03-25T10:46:38.848Z,99908.75
2023-03-25T10:49:05.707Z,99911.66
2023-03-25T10:51:34.062Z,99917.41
2023-03-25T10:54:01.038Z,99915.34
2023-03-25T10:56:33.534Z,99908.13
2023-03-25T10:59:03.742Z,99913.41
2023-03-25T11:01:44.071Z,99904.75
2023-03-25T11:04:14.474Z,99904.75
2023-03-25T11:06:43.151Z,99917.69
2023-03-25T11:09:30.582Z,99897.59
2023-03-25T11:12:01.502Z,99909.59
2023-03-25T11:14:30.128Z,99914.88
2023-03-25T11:17:04.155Z,99912.00
2023-03-25T11:19:31.994Z,99915.63
2023-03-25T11:22:09.375Z,99901.81
2023-03-25T11:24:41.508Z,99901.22
2023-03-25T11:27:09.308Z,99906.22
2023-03-25T11:29:37.065Z,99903.28
2023-03-25T11:32:11.531Z,99889.97
2023-03-25T11:34:47.619Z,99921.28
2023-03-25T11:37:22.600Z,99903.94
2023-03-25T11:39:52.242Z,99905.66
2023-03-25T11:42:22.546Z,99902.69
2023-03-25T11:44:53.898Z,99898.13
2023-03-25T11:47:26.158Z,99890.22
2023-03-25T11:49:53.843Z,99880.09
2023-03-25T11:52:26.355Z,99878.41
2023-03-25T11:54:54.345Z,99869.13
2023-03-25T11:57:25.932Z,99876.63
2023-03-25T12:00:07.069Z,99866.47
2023-03-25T12:02:40.411Z,99863.31
2023-03-25T12:05:13.302Z,99863.72
2023-03-25T12:07:51.261Z,99870.63
2023-03-25T12:10:28.371Z,99873.84
2023-03-25T12:12:58.334Z,99870.41
2023-03-25T12:15:41.586Z,99869.72
2023-03-25T12:18:11.666Z,99868.31
2023-03-25T12:20:46.889Z,99865.63
2023-03-25T12:23:25.822Z,99869.06
2023-03-25T12:26:06.955Z,99862.63
2023-03-25T12:29:00.757Z,99866.34
2023-03-25T12:31:43.758Z,99854.41
2023-03-25T12:34:19.744Z,99855.59
2023-03-25T12:36:55.523Z,99852.03
2023-03-25T12:39:42.181Z,99842.81
2023-03-25T12:42:37.614Z,99844.44
2023-03-25T12:45:35.662Z,99836.13
2023-03-25T12:48:11.556Z,99835.84
2023-03-25T12:51:00.288Z,99849.94
2023-03-25T12:53:27.013Z,99837.84
2023-03-25T12:55:53.793Z,99829.97
2023-03-25T12:58:42.426Z,99833.09
2023-03-25T13:01:35.385Z,99840.09
2023-03-25T13:04:14.270Z,99858.44
2023-03-25T13:06:48.760Z,99862.72
2023-03-25T13:09:22.136Z,99848.94
2023-03-25T13:11:58.635Z,99846.56
2023-03-25T13:14:36.348Z,99850.25
2023-03-25T13:17:07.665Z,99855.81
2023-03-25T13:19:39.517Z,99877.34
2023-03-25T13:22:16.870Z,99878.47
2023-03-25T13:24:56.283Z,99857.19
2023-03-25T13:27:23.681Z,99855.41
2023-03-25T13:29:53.235Z,99855.25
2023-03-25T13:32:48.393Z,99861.97
2023-03-25T13:35:25.973Z,99872.00
2023-03-25T13:37:56.581Z,99878.84
2023-03-25T13:40:29.623Z,99879.16
2023-03-25T13:43:00.126Z,99882.50
2023-03-25T13:45:33.914Z,99878.69
2023-03-25T13:48:12.652Z,99874.00
2023-03-25T13:50:39.786Z,99873.53
2023-03-25T13:53:28.311Z,99865.75
2023-03-25T13:56:07.309Z,99867.28
2023-03-25T13:59:10.000Z,99875.59
2023-03-25T14:02:11.146Z,99876.72
2023-03-25T14:05:06.522Z,99872.19
2023-03-25T14:07:33.426Z,99876.75
2023-03-25T14:10:12.912Z,99866.91
2023-03-25T14:12:46.001Z,99870.72
2023-03-25T14:15:16.346Z,99864.72
2023-03-25T14:17:45.678Z,99859.38
2023-03-25T14:20:18.058Z,99852.69
2023-03-25T14:22:45.136Z,99867.06
2023-03-25T14:25:20.411Z,99861.53
2023-03-25T14:27:51.518Z,99858.66
2023-03-25T14:30:27.637Z,99857.59
2023-03-25T14:32:57.803Z,99854.75
2023-03-25T14:35:34.166Z,99850.53
2023-03-25T14:38:22.265Z,99837.06
2023-03-25T14:41:02.938Z,99837.91
2023-03-25T14:43:37.682Z,99839.97
2023-03-25T14:46:14.824Z,99839.28
2023-03-25T14:48:48.025Z,99840.03
2023-03-25T14:51:22.869Z,99833.63
2023-03-25T14:53:55.196Z,99841.19
2023-03-25T14:56:32.030Z,99830.19
2023-03-25T14:59:06.645Z,99831.63
2023-03-25T15:01:35.683Z,99830.47
2023-03-25T15:04:13.266Z,99829.97
2023-03-25T15:06:40.736Z,99825.69
2023-03-25T15:09:13.539Z,99825.59
2023-03-25T15:11:43.299Z,99821.63
2023-03-25T15:14:19.771Z,99823.09
2023-03-25T15:16:47.733Z,99821.16
2023-03-25T15:19:16.511Z,99818.09
2023-03-25T15:21:58.649Z,99812.75
2023-03-25T15:24:38.773Z,99811.22
2023-03-25T15:27:17.082Z,99803.94
2023-03-25T15:30:02.699Z,99807.16
2023-03-25T15:32:53.140Z,99813.38
2023-03-25T15:35:38.807Z,99812.81
2023-03-25T15:38:30.785Z,99806.53
2023-03-25T15:41:13.120Z,99803.31
2023-03-25T15:44:00.592Z,99810.41
2023-03-25T15:46:56.238Z,99806.41
2023-03-25T15:49:33.526Z,99812.53
2023-03-25T15:52:09.371Z,99799.84
2023-03-25T15:54:48.657Z,99798.88
2023-03-25T15:57:17.299Z,99806.59
2023-03-25T15:59:52.268Z,99797.91
2023-03-25T16:02:28.839Z,99813.22
2023-03-25T16:04:56.008Z,99819.34
2023-03-25T16:07:25.040Z,99832.81
2023-03-25T16:09:51.853Z,99837.31
2023-03-25T16:12:24.358Z,99844.75
2023-03-25T16:14:52.551Z,99868.72
2023-03-25T16:17:21.487Z,99871.84
2023-03-25T16:19:57.438Z,99863.69
2023-03-25T16:22:30.025Z,99857.09
2023-03-25T16:24:58.480Z,99858.97
2023-03-25T16:27:30.898Z,99857.97
2023-03-25T16:29:58.055Z,99851.50
2023-03-25T16:32:33.446Z,99842.44
2023-03-25T16:35:01.117Z,99848.38
2023-03-25T16:37:28.435Z,99843.28
2023-03-25T16:39:56.984Z,99834.31
2023-03-25T16:42:31.430Z,99834.75
2023-03-25T16:44:58.207Z,99833.38
2023-03-25T16:47:25.504Z,99840.53
2023-03-25T16:49:53.811Z,99838.72
2023-03-25T16:52:26.306Z,99846.16
2023-03-25T16:54:53.033Z,99840.81
2023-03-25T16:57:29.748Z,99848.56
2023-03-25T16:59:57.048Z,99840.72
2023-03-25T17:02:23.942Z,99833.53
2023-03-25T17:04:51.271Z,99832.59
2023-03-25T17:07:21.118Z,99833.38
2023-03-25T17:09:51.870Z,99841.22
2023-03-25T17:12:21.127Z,99854.59
2023-03-25T17:14:50.323Z,99863.00
2023-03-25T17:17:23.199Z,99858.34
2023-03-25T17:19:52.498Z,99862.06
2023-03-25T17:23:10.413Z,99858.47
2023-03-25T17:26:02.371Z,99865.09
2023-03-25T17:28:38.322Z,99869.66
2023-03-25T17:31:18.444Z,99869.97
2023-03-25T17:34:06.806Z,99874.59
2023-03-25T17:36:36.608Z,99871.59
2023-03-25T17:39:05.644Z,99872.47
2023-03-25T17:41:38.651Z,99870.97
2023-03-25T17:44:06.123Z,99873.56
2023-03-25T17:46:33.845Z,99874.03
2023-03-25T17:49:01.616Z,99877.41
2023-03-25T17:51:30.756Z,99875.31
2023-03-25T17:53:57.630Z,99866.34
2023-03-25T17:56:26.857Z,99876.31
2023-03-25T17:59:00.544Z,99876.31
2023-03-25T18:01:28.305Z,99874.59
2023-03-25T18:03:55.335Z,99875.16
2023-03-25T18:06:22.205Z,99883.00
2023-03-25T18:08:49.146Z,99883.63
2023-03-25T18:11:16.235Z,99880.50
2023-03-25T18:13:48.981Z,99881.38
2023-03-25T18:16:17.794Z,99877.53
2023-03-25T18:18:44.782Z,99864.06
2023-03-25T18:21:12.704Z,99873.00
2023-03-25T18:23:40.338Z,99876.44
2023-03-25T18:26:12.756Z,99863.97
2023-03-25T18:28:43.132Z,99870.25
2023-03-25T18:31:17.508Z,99869.00
2023-03-25T18:33:46.518Z,99876.16
2023-03-25T18:36:13.761Z,99875.63
2023-03-25T18:38:41.111Z,99869.06
2023-03-25T18:41:08.516Z,99877.84
2023-03-25T18:43:35.623Z,99871.50
2023-03-25T18:46:02.519Z,99860.84
2023-03-25T18:48:29.386Z,99869.94
2023-03-25T18:51:00.032Z,99860.28
2023-03-25T18:53:28.718Z,99868.59
2023-03-25T18:56:00.165Z,99867.44
2023-03-25T18:58:31.957Z,99865.94
2023-03-25T19:01:00.576Z,99873.06
2023-03-25T19:03:31.639Z,99878.97
2023-03-25T19:06:00.531Z,99892.53
2023-03-25T19:08:28.968Z,99896.59
2023-03-25T19:11:04.818Z,99918.91
2023-03-25T19:13:31.839Z,99915.94
2023-03-25T19:15:59.060Z,99924.72
2023-03-25T19:18:26.814Z,99920.59
2023-03-25T19:20:54.596Z,99912.69
2023-03-25T19:23:23.306Z,99923.84
2023-03-25T19:25:52.639Z,99907.97
2023-03-25T19:28:21.694Z,99908.03
2023-03-25T19:30:50.886Z,99902.84
2023-03-25T19:33:19.545Z,99901.63
2023-03-25T19:35:55.753Z,99896.34
2023-03-25T19:38:23.119Z,99891.81
2023-03-25T19:40:52.022Z,99883.75
2023-03-25T19:43:19.039Z,99895.56
2023-03-25T19:45:45.862Z,99890.97
2023-03-25T19:48:12.638Z,99879.34
2023-03-25T19:50:41.097Z,99876.97
2023-03-25T19:53:08.267Z,99880.50
2023-03-25T19:55:35.494Z,99879.31
2023-03-25T19:58:03.037Z,99884.41
2023-03-25T20:00:30.744Z,99876.47
2023-03-25T20:03:00.878Z,99883.97
2023-03-25T20:05:31.818Z,99876.28
2023-03-25T20:07:58.902Z,99865.91
2023-03-25T20:10:30.719Z,99859.00
2023-03-25T20:12:58.052Z,99854.38
2023-03-25T20:15:25.970Z,99859.19
2023-03-25T20:17:54.547Z,99861.56
2023-03-25T20:20:22.250Z,99862.56
2023-03-25T20:22:49.178Z,99851.81
2023-03-25T20:25:16.527Z,99862.47
2023-03-25T20:27:44.316Z,99867.41
2023-03-25T20:30:14.706Z,99868.53
2023-03-25T20:32:43.647Z,99858.09
2023-03-25T20:35:13.548Z,99859.81
2023-03-25T20:37:41.917Z,99866.22
2023-03-25T20:40:11.949Z,99856.16
2023-03-25T20:42:40.561Z,99863.84
2023-03-25T20:45:08.735Z,99860.75
2023-03-25T20:47:35.626Z,99866.66
2023-03-25T20:50:03.022Z,99868.41
2023-03-25T20:52:30.471Z,99864.13
2023-03-25T20:54:57.321Z,99865.69
2023-03-25T20:57:24.226Z,99860.81
2023-03-25T20:59:53.094Z,99866.22
2023-03-25T21:02:21.134Z,99862.81
2023-03-25T21:04:48.120Z,99861.16
2023-03-25T21:07:18.710Z,99861.38
2023-03-25T21:09:47.507Z,99867.56
2023-03-25T21:12:14.408Z,99872.03
2023-03-25T21:14:41.576Z,99873.84
2023-03-25T21:17:08.386Z,99871.81
2023-03-25T21:19:35.470Z,99870.22
2023-03-25T21:22:02.362Z,99876.81
2023-03-25T21:24:29.334Z,99876.22
2023-03-25T21:26:56.161Z,99877.66
2023-03-25T21:29:23.018Z,99877.47
2023-03-25T21:31:49.931Z,99882.91
2023-03-25T21:34:16.984Z,99877.66
2023-03-25T21:36:43.915Z,99873.91
2023-03-25T21:39:11.159Z,99868.34
2023-03-25T21:41:38.527Z,99873.22
2023-03-25T21:44:06.239Z,99852.78
2023-03-25T21:46:33.717Z,99860.56
2023-03-25T21:49:01.511Z,99864.13
2023-03-25T21:51:31.011Z,99856.56
2023-03-25T21:53:58.923Z,99857.59
2023-03-25T21:56:27.545Z,99855.22
2023-03-25T21:58:54.375Z,99857.50
2023-03-25T22:01:28.706Z,99857.66
2023-03-25T22:03:57.606Z,99854.25
2023-03-25T22:06:27.342Z,99864.22
2023-03-25T22:08:54.583Z,99865.81
2023-03-25T22:11:24.382Z,99863.75
2023-03-25T22:13:51.899Z,99862.56
2023-03-25T22:16:20.840Z,99855.31
2023-03-25T22:18:48.226Z,99860.03
2023-03-25T22:21:19.007Z,99865.34
2023-03-25T22:23:47.292Z,99861.72
2023-03-25T22:26:16.415Z,99858.53
2023-03-25T22:28:43.660Z,99845.28
2023-03-25T22:31:16.520Z,99857.66
2023-03-25T22:33:43.500Z,99846.47
2023-03-25T22:36:13.474Z,99847.75
2023-03-25T22:38:45.645Z,99842.97
2023-03-25T22:41:14.290Z,99851.41
2023-03-25T22:43:41.354Z,99864.66
2023-03-25T22:46:09.092Z,99863.56
2023-03-25T22:48:38.924Z,99862.78
2023-03-25T22:51:07.586Z,99864.22
2023-03-25T22:53:34.366Z,99866.31
2023-03-25T22:56:01.319Z,99865.03
2023-03-25T22:58:29.666Z,99868.84
2023-03-25T23:00:57.755Z,99873.09
2023-03-25T23:03:26.265Z,99868.28
2023-03-25T23:06:01.923Z,99864.97
2023-03-25T23:08:31.777Z,99868.94
2023-03-25T23:11:08.020Z,99873.41
2023-03-25T23:13:35.798Z,99870.97
2023-03-25T23:16:09.192Z,99867.63
2023-03-25T23:18:37.132Z,99871.75
2023-03-25T23:21:04.318Z,99875.66
2023-03-25T23:23:31.735Z,99881.19
2023-03-25T23:26:03.730Z,99870.50
2023-03-25T23:28:34.532Z,99888.66
2023-03-25T23:31:02.275Z,99870.63
2023-03-25T23:33:30.243Z,99877.63
2023-03-25T23:36:05.653Z,99884.38
2023-03-25T23:38:32.870Z,99889.66
2023-03-25T23:41:10.183Z,99890.03
2023-03-25T23:43:37.380Z,99883.25
2023-03-25T23:46:05.773Z,99897.47
2023-03-25T23:48:33.643Z,99892.53
2023-03-25T23:51:00.457Z,99890.28
2023-03-25T23:53:27.776Z,99892.47
2023-03-25T23:55:55.685Z,99893.28
2023-03-25T23:58:25.287Z,99901.59
